Flight Track Log - Related Links

Times and Time Zones

All times are in EDT time to prevent confusion due to time zone crossing. See the AFL1160 flight status page for this flight to view local times or setup timezone preferences in your user account.

Time Position Orientation Groundspeed Altitude Reporting Facility
EDT Latitude Longitude Course Direction KTS MPH feet Rate Location/Type
Wed 10:17:13 AM 55.4203 37.2310 151° Southeast 400 460 17,900  Level FlightAware ADS-B (UUWV / MOW)
Wed 10:17:58 AM 55.3464 37.3018 151° Southeast 399 459 19,600 2,444 Climbing FlightAware ADS-B (UUWV / MOW)
Wed 10:19:01 AM 55.2455 37.3978 151° Southeast 404 465 22,300 2,000 Climbing FlightAware ADS-B (UUWV / MOW)
Wed 10:19:43 AM 55.1761 37.4650 150° Southeast 409 471 23,100 1,151 Climbing FlightAware ADS-B (UUWV / MOW)
Wed 10:20:14 AM 55.1417 37.5240 125° Southeast 438 504 23,700 1,082 Climbing FlightAware ADS-B (UUWV / MOW)
Wed 10:20:44 AM 55.1153 37.6438 106° East 459 528 24,200 848 Climbing FlightAware ADS-B (UUWV / MOW)
Wed 10:21:46 AM 55.0787 37.8715 106° East 469 540 25,000 724 Climbing FlightAware ADS-B (UUWV / MOW)
Wed 10:22:40 AM 55.0364 38.0552 119° Southeast 463 533 25,600 870 Climbing FlightAware ADS-B (UUWV / MOW)
Wed 10:22:55 AM 55.0142 38.0975 138° Southeast 446 513 26,000 1,263 Climbing FlightAware ADS-B (UUWV / MOW)
Wed 10:23:56 AM 54.9034 38.1739 171° South 427 491 27,200 1,295 Climbing FlightAware ADS-B (UUWV / MOW)
Wed 10:25:14 AM 54.7540 38.2182 171° South 429 494 29,000 878 Climbing FlightAware ADS-B (UUWV / MOW)
Wed 10:25:59 AM 54.6636 38.2441 171° South 442 509 29,000  Level FlightAware ADS-B (UUWV / MOW)
Wed 10:27:12 AM 54.5222 38.2848 171° South 441 507 29,000  Level FlightAware ADS-B (UUWV / MOW)
Wed 10:28:20 AM 54.3842 38.3244 171° South 413 475 29,000  Level FlightAware ADS-B (UUWV / MOW)
Wed 10:28:54 AM 54.3201 38.3423 171° South 413 475 29,000  Level FlightAware ADS-B (UUWV / MOW)
Wed 10:29:40 AM 54.2343 38.3653 171° South 413 475 29,000  Level FlightAware ADS-B (UUWV / MOW)
Wed 10:30:25 AM 54.2171 38.3700 171° South 415 478 29,000  Level FlightAware ADS-B (UUWV / MOW)
Wed 10:31:38 AM 54.0107 38.4250 171° South 418 481 29,000  Level FlightAware ADS-B (UUWV / MOW)
Wed 10:32:00 AM 54.0852 38.4019 172° South  Level Estimated
Wed 10:33:57 AM 53.7449 38.4956 171° South 418 481 29,000  Level FlightAware ADS-B (UUWV / MOW)
Wed 10:34:00 AM 53.8306 38.4679 172° South  Level Estimated
Wed 10:35:12 AM 53.6054 38.5413 170° South 418 481 29,000  Level FlightAware ADS-B (UUWV / MOW)
Wed 10:35:48 AM 53.5342 38.5610 177° South 416 479 29,000  Level FlightAware ADS-B (UUWV / MOW)
Wed 10:38:00 AM 53.3667 38.5992 172° South  Level Estimated
Wed 10:39:00 AM 53.2906 38.6165 172° South  Level Estimated
Wed 10:40:00 AM 53.2145 38.6338 172° South  Level Estimated
Wed 10:41:00 AM 53.1384 38.6510 172° South  Level Estimated
Wed 10:42:00 AM 53.0623 38.6681 172° South  Level Estimated
Wed 10:43:00 AM 52.9861 38.6851 172° South  Level Estimated
Wed 10:44:00 AM 52.9100 38.7021 172° South  Level Estimated
Wed 10:45:00 AM 52.8339 38.7191 172° South  Level Estimated
Wed 10:46:00 AM 52.7577 38.7359 172° South  Level Estimated
Wed 10:47:00 AM 52.6816 38.7528 172° South  Level Estimated
Wed 10:48:00 AM 52.6055 38.7695 172° South  Level Estimated
Wed 10:49:00 AM 52.5293 38.7862 172° South  Level Estimated
Wed 10:50:00 AM 52.4532 38.8028 172° South  Level Estimated
Wed 10:51:00 AM 52.3770 38.8194 172° South  Level Estimated
Wed 10:52:00 AM 52.3009 38.8360 172° South  Level Estimated
Wed 10:53:00 AM 52.2247 38.8524 172° South  Level Estimated
Wed 10:54:00 AM 52.1486 38.8689 172° South  Level Estimated
Wed 10:55:00 AM 52.0724 38.8852 172° South  Level Estimated
Wed 10:56:00 AM 51.9963 38.9015 172° South  Level Estimated
Wed 10:57:00 AM 51.9201 38.9178 173° South  Level Estimated
Wed 10:58:00 AM 51.8440 38.9339 173° South  Level Estimated
Wed 10:59:00 AM 51.7678 38.9501 173° South  Level Estimated
Wed 11:00:00 AM 51.6916 38.9662 173° South  Level Estimated
Wed 11:01:00 AM 51.6155 38.9822 173° South  Level Estimated
Wed 11:02:00 AM 51.5393 38.9982 173° South  Level Estimated
Wed 11:03:00 AM 51.4631 39.0141 173° South  Level Estimated
Wed 11:04:00 AM 51.3870 39.0300 173° South  Level Estimated
Wed 11:05:00 AM 51.3108 39.0458 173° South  Level Estimated
Wed 11:06:00 AM 51.2346 39.0616 173° South  Level Estimated
Wed 11:07:00 AM 51.1584 39.0773 173° South  Level Estimated
Wed 11:08:00 AM 51.0822 39.0929 173° South  Level Estimated
Wed 11:09:00 AM 51.0060 39.1085 173° South  Level Estimated
Wed 11:10:00 AM 50.9299 39.1241 173° South  Level Estimated
Wed 11:11:00 AM 50.8537 39.1396 173° South  Level Estimated
Wed 11:12:00 AM 50.7775 39.1551 173° South  Level Estimated
Wed 11:13:00 AM 50.7013 39.1705 173° South  Level Estimated
Wed 11:14:00 AM 50.6251 39.1858 173° South  Level Estimated
Wed 11:15:00 AM 50.5489 39.2011 173° South  Level Estimated
Wed 11:16:00 AM 50.4727 39.2164 173° South  Level Estimated
Wed 11:17:00 AM 50.3965 39.2316 173° South  Level Estimated
Wed 11:18:00 AM 50.3203 39.2468 173° South  Level Estimated
Wed 11:19:00 AM 50.2441 39.2619 173° South  Level Estimated
Wed 11:20:00 AM 50.1679 39.2769 173° South  Level Estimated
Wed 11:21:00 AM 50.0917 39.2919 173° South  Level Estimated
Wed 11:22:00 AM 50.0155 39.3069 173° South  Level Estimated
Wed 11:23:00 AM 49.9392 39.3218 173° South  Level Estimated
Wed 11:24:00 AM 49.8630 39.3367 173° South  Level Estimated
Wed 11:25:00 AM 49.7868 39.3515 173° South  Level Estimated
Wed 11:26:00 AM 49.7106 39.3663 173° South  Level Estimated
Wed 11:27:00 AM 49.6344 39.3810 173° South  Level Estimated
Wed 11:28:00 AM 49.5582 39.3957 173° South  Level Estimated
Wed 11:29:00 AM 49.4819 39.4104 173° South  Level Estimated
Wed 11:30:00 AM 49.4057 39.4250 173° South  Level Estimated
Wed 11:31:00 AM 49.3295 39.4395 173° South  Level Estimated
Wed 11:32:00 AM 49.2533 39.4540 173° South  Level Estimated
Wed 11:33:00 AM 49.1770 39.4685 173° South  Level Estimated
Wed 11:34:00 AM 49.1008 39.4829 173° South  Level Estimated
Wed 11:35:00 AM 49.0246 39.4973 173° South  Level Estimated
Wed 11:36:00 AM 48.9483 39.5116 173° South  Level Estimated
Wed 11:37:00 AM 48.8721 39.5259 173° South  Level Estimated
Wed 11:38:00 AM 48.7958 39.5401 173° South  Level Estimated
Wed 11:39:00 AM 48.7196 39.5543 173° South  Level Estimated
Wed 11:40:00 AM 48.6433 39.5685 173° South  Level Estimated
Wed 11:41:00 AM 48.5671 39.5826 173° South  Level Estimated
Wed 11:42:00 AM 48.4908 39.5966 173° South  Level Estimated
Wed 11:43:00 AM 48.4146 39.6107 173° South  Level Estimated
Wed 11:44:00 AM 48.3383 39.6247 173° South  Level Estimated
Wed 11:45:00 AM 48.2621 39.6386 173° South  Level Estimated
Wed 11:46:00 AM 48.1858 39.6525 173° South  Level Estimated
Wed 11:47:00 AM 48.1096 39.6664 173° South  Level Estimated
Wed 11:48:00 AM 48.0333 39.6802 173° South  Level Estimated
Wed 11:49:00 AM 47.9571 39.6940 173° South  Level Estimated
Wed 11:50:00 AM 47.8808 39.7077 173° South  Level Estimated
Wed 11:51:00 AM 47.8046 39.7214 173° South  Level Estimated
Wed 11:52:00 AM 47.7283 39.7351 173° South  Level Estimated
Wed 11:53:00 AM 47.6520 39.7487 173° South  Level Estimated
Wed 11:54:00 AM 47.5758 39.7622 173° South  Level Estimated
Wed 11:55:00 AM 47.4995 39.7758 173° South  Level Estimated
Wed 11:56:00 AM 47.4232 39.7893 173° South  Level Estimated
Wed 11:57:00 AM 47.3470 39.8027 173° South  Level Estimated
Wed 11:58:00 AM 47.2707 39.8162 173° South  Level Estimated
Wed 11:59:00 AM 47.2583 39.8183 173° South  Level Estimated
Wed 12:00:00 PM 47.2583 39.8183 North  Level Estimated
Wed 12:01:00 PM 47.2583 39.8183 North  Level Estimated
Wed 12:02:00 PM 47.2583 39.8183 North  Level Estimated
Wed 12:03:00 PM 47.2583 39.8183 North  Level Estimated
Wed 12:04:00 PM 47.2583 39.8183 North  Level Estimated
Wed 12:05:00 PM 47.2583 39.8183 North  Level Estimated
Wed 12:06:00 PM 47.2583 39.8183 North  Level Estimated
Wed 12:07:00 PM 47.2583 39.8183 North  Level Estimated
Wed 12:08:00 PM 47.2583 39.8183 North  Level Estimated
Wed 12:09:00 PM 47.2583 39.8183 North  Level Estimated
Wed 12:10:00 PM 47.2583 39.8183 North  Level Estimated
Wed 12:11:00 PM 47.2583 39.8183 North  Level Estimated

Login

Don't have an account? Register now (free) for customized features, flight alerts, and more!